Time;durP1;ratioP1;P1;durP2;ratioP2;P2;SDS_P1;SDS_P2;PMS_P1;PMS_P2;Temp;Humidity;BMP_temperature;BMP_pressure;BME280_temperature;BME280_humidity;BME280_pressure;Samples;Min_cycle;Max_cycle;Signal;HPM_P1;HPM_P2
2023/07/19 00:00:53;;;;;;;0.80;0.40;;;18.20;98.70;;;;;;5025215;28;20610;-71
2023/07/19 00:03:20;;;;;;;1.25;0.40;;;18.10;98.90;;;;;;5008289;28;20033;-71
2023/07/19 00:05:48;;;;;;;1.75;0.40;;;18.20;99.10;;;;;;5024234;28;20039;-71
2023/07/19 00:08:14;;;;;;;2.78;0.60;;;18.20;99.20;;;;;;5027016;28;20674;-71
2023/07/19 00:10:41;;;;;;;2.65;0.60;;;18.30;99.50;;;;;;5035144;28;20048;-71
2023/07/19 00:13:07;;;;;;;1.35;0.40;;;18.30;99.70;;;;;;5005423;28;20659;-71
2023/07/19 00:15:34;;;;;;;1.30;0.50;;;18.30;99.90;;;;;;5038760;28;20031;-71
2023/07/19 00:18:01;;;;;;;1.83;0.50;;;18.40;99.90;;;;;;5026942;28;20032;-71
2023/07/19 00:20:28;;;;;;;2.35;0.47;;;18.40;99.90;;;;;;5008057;28;20037;-71
2023/07/19 00:22:54;;;;;;;1.50;0.50;;;18.30;99.90;;;;;;4990733;28;20850;-71
2023/07/19 00:25:22;;;;;;;1.60;0.50;;;18.30;99.90;;;;;;5006502;28;20032;-71
2023/07/19 00:27:50;;;;;;;1.27;0.50;;;18.30;99.90;;;;;;5027557;28;20036;-71
2023/07/19 00:30:16;;;;;;;1.90;0.50;;;18.30;99.90;;;;;;4999760;28;20408;-71
2023/07/19 00:32:43;;;;;;;2.85;0.60;;;18.30;99.90;;;;;;5007278;28;20665;-71
2023/07/19 00:35:10;;;;;;;2.38;0.50;;;18.30;99.90;;;;;;5024233;28;20043;-71
2023/07/19 00:37:36;;;;;;;2.42;0.50;;;18.30;99.90;;;;;;5032045;28;20029;-71
2023/07/19 00:40:04;;;;;;;2.55;0.60;;;18.30;99.90;;;;;;5008523;28;20040;-71
2023/07/19 00:42:31;;;;;;;1.67;0.60;;;18.20;99.90;;;;;;5006708;28;20032;-71
2023/07/19 00:44:57;;;;;;;2.10;0.63;;;18.10;99.90;;;;;;5023310;28;21015;-71
2023/07/19 00:47:24;;;;;;;1.73;0.50;;;18.10;99.90;;;;;;4991372;28;20472;-71
2023/07/19 00:49:51;;;;;;;1.48;0.40;;;18.00;99.90;;;;;;5009712;28;20047;-71
2023/07/19 00:52:18;;;;;;;2.50;0.50;;;17.90;99.90;;;;;;5019095;28;20036;-70
2023/07/19 00:54:45;;;;;;;3.10;0.63;;;17.90;99.90;;;;;;5038491;28;20033;-71
2023/07/19 00:57:11;;;;;;;2.45;0.50;;;17.80;99.90;;;;;;5010183;28;20032;-71
2023/07/19 00:59:40;;;;;;;1.90;0.40;;;17.70;99.90;;;;;;4972083;28;20053;-71
2023/07/19 01:02:07;;;;;;;1.15;0.40;;;17.60;99.90;;;;;;5023839;28;20052;-71
2023/07/19 01:04:34;;;;;;;0.90;0.40;;;17.60;99.90;;;;;;5006802;28;20036;-71
2023/07/19 01:07:03;;;;;;;2.38;0.45;;;17.50;99.90;;;;;;4992842;28;20509;-71
2023/07/19 01:09:30;;;;;;;0.75;0.30;;;17.50;99.90;;;;;;5030686;28;20621;-71
2023/07/19 01:11:56;;;;;;;1.50;0.40;;;17.40;99.90;;;;;;5040766;28;20495;-71
2023/07/19 01:14:23;;;;;;;1.85;0.30;;;17.30;99.90;;;;;;5021017;28;20036;-71
2023/07/19 01:16:51;;;;;;;1.50;0.40;;;17.30;99.90;;;;;;5015243;28;20033;-71
2023/07/19 01:19:18;;;;;;;1.83;0.43;;;17.20;99.90;;;;;;4997521;28;20042;-70
2023/07/19 01:21:45;;;;;;;1.95;0.45;;;17.20;99.90;;;;;;5014375;28;20036;-70
2023/07/19 01:24:12;;;;;;;2.63;0.50;;;17.10;99.90;;;;;;5013169;28;20083;-70
2023/07/19 01:26:39;;;;;;;1.27;0.47;;;17.10;99.90;;;;;;5011813;28;20043;-71
2023/07/19 01:29:06;;;;;;;1.40;0.50;;;17.10;99.90;;;;;;5012156;28;20048;-71
2023/07/19 01:31:32;;;;;;;2.20;0.50;;;17.00;99.90;;;;;;5038844;28;20036;-71
2023/07/19 01:33:58;;;;;;;1.98;0.50;;;17.00;99.90;;;;;;5009667;28;20029;-71
2023/07/19 01:36:26;;;;;;;2.03;0.60;;;17.10;99.90;;;;;;5005211;28;20468;-71
2023/07/19 01:38:53;;;;;;;1.05;0.63;;;17.00;99.90;;;;;;5011329;28;20017;-72
2023/07/19 01:41:20;;;;;;;2.58;0.63;;;17.00;99.90;;;;;;5009856;28;21383;-72
2023/07/19 01:43:47;;;;;;;2.15;0.60;;;17.00;99.90;;;;;;5010714;28;20021;-72
2023/07/19 01:46:13;;;;;;;2.55;0.50;;;17.00;99.90;;;;;;4993446;28;20040;-72
2023/07/19 01:48:40;;;;;;;3.10;0.60;;;17.00;99.90;;;;;;5029123;28;20379;-72
2023/07/19 01:51:06;;;;;;;1.98;0.63;;;17.00;99.90;;;;;;5037896;28;20032;-72
2023/07/19 01:53:33;;;;;;;3.30;0.70;;;16.90;99.90;;;;;;5024846;28;20043;-72
2023/07/19 01:55:59;;;;;;;3.15;0.50;;;17.00;99.90;;;;;;5019034;28;20492;-72
2023/07/19 01:58:26;;;;;;;1.70;0.60;;;16.90;99.90;;;;;;5030681;28;20559;-72
2023/07/19 02:00:56;;;;;;;4.85;1.45;;;16.90;99.90;;;;;;5010000;28;20040;-72
2023/07/19 02:03:24;;;;;;;1.30;0.50;;;16.90;99.90;;;;;;5010762;28;20029;-72
2023/07/19 02:06:00;;;;;;;2.53;0.55;;;16.90;99.90;;;;;;5010542;28;20056;-72
2023/07/19 02:08:27;;;;;;;2.00;0.50;;;16.90;99.90;;;;;;5008079;28;20553;-72
2023/07/19 02:10:54;;;;;;;3.88;0.70;;;16.90;99.90;;;;;;5021690;28;20379;-72
2023/07/19 02:13:21;;;;;;;1.80;0.50;;;16.80;99.90;;;;;;5023257;28;20040;-72
2023/07/19 02:15:48;;;;;;;1.30;0.43;;;16.80;99.90;;;;;;5036879;28;20032;-72
2023/07/19 02:18:14;;;;;;;1.95;0.50;;;16.80;99.90;;;;;;5010288;28;20416;-72
2023/07/19 02:20:51;;;;;;;0.82;0.40;;;16.70;99.90;;;;;;5011000;28;20021;-72
2023/07/19 02:23:18;;;;;;;2.58;0.60;;;16.70;99.90;;;;;;5028570;28;20029;-72
2023/07/19 02:25:48;;;;;;;1.92;0.50;;;16.70;99.90;;;;;;4994877;28;20048;-72
2023/07/19 02:28:15;;;;;;;1.13;0.50;;;16.70;99.90;;;;;;5026760;28;21199;-72
2023/07/19 02:30:45;;;;;;;3.58;0.80;;;16.70;99.90;;;;;;5021032;28;20025;-72
2023/07/19 02:33:13;;;;;;;1.92;0.60;;;16.80;99.90;;;;;;5039681;28;20403;-72
2023/07/19 02:35:41;;;;;;;2.10;0.65;;;16.80;99.90;;;;;;5002057;28;20043;-72
2023/07/19 02:38:09;;;;;;;2.80;0.65;;;16.80;99.90;;;;;;5011369;28;20067;-72
2023/07/19 02:40:38;;;;;;;1.25;0.52;;;16.80;99.90;;;;;;5010042;28;20036;-72
2023/07/19 02:43:04;;;;;;;1.20;0.47;;;16.80;99.90;;;;;;5005375;28;20032;-72
2023/07/19 02:45:34;;;;;;;1.60;0.70;;;16.80;99.90;;;;;;4993141;28;20029;-72
2023/07/19 02:48:02;;;;;;;1.92;0.70;;;16.70;99.90;;;;;;5027049;28;20028;-69
2023/07/19 02:50:30;;;;;;;4.60;1.20;;;16.70;99.90;;;;;;5021700;28;20024;-72
2023/07/19 02:52:57;;;;;;;2.17;0.68;;;16.70;99.90;;;;;;4989872;28;22348;-72
2023/07/19 02:55:23;;;;;;;3.75;0.80;;;16.60;99.90;;;;;;5034562;28;20033;-72
2023/07/19 02:57:50;;;;;;;2.58;0.88;;;16.60;99.90;;;;;;5009830;28;20033;-72
2023/07/19 03:00:17;;;;;;;1.75;0.60;;;16.60;99.90;;;;;;5011673;28;20020;-72
2023/07/19 03:02:46;;;;;;;1.90;0.80;;;16.60;99.90;;;;;;4991605;28;20048;-72
2023/07/19 03:05:15;;;;;;;1.60;0.60;;;16.60;99.90;;;;;;4996082;28;21008;-72
2023/07/19 03:07:43;;;;;;;2.25;0.63;;;16.50;99.90;;;;;;5011919;28;20047;-72
2023/07/19 03:10:09;;;;;;;1.15;0.50;;;16.50;99.90;;;;;;5003740;28;20029;-71
2023/07/19 03:12:35;;;;;;;1.48;0.60;;;16.50;99.90;;;;;;5005756;28;20040;-72
2023/07/19 03:15:02;;;;;;;2.00;0.60;;;16.50;99.90;;;;;;5014229;28;20048;-72
2023/07/19 03:17:29;;;;;;;2.20;0.60;;;16.50;99.90;;;;;;4978185;28;20029;-72
2023/07/19 03:19:55;;;;;;;2.28;0.60;;;16.50;99.90;;;;;;5010569;28;20367;-72
2023/07/19 03:22:22;;;;;;;1.90;0.80;;;16.40;99.90;;;;;;5009664;28;20040;-72
2023/07/19 03:24:49;;;;;;;2.17;0.63;;;16.50;99.90;;;;;;5028261;28;20037;-72
2023/07/19 03:27:15;;;;;;;1.85;0.65;;;16.40;99.90;;;;;;5009939;28;20041;-72
2023/07/19 03:29:42;;;;;;;3.35;0.68;;;16.40;99.90;;;;;;5002701;28;20037;-72
2023/07/19 03:32:09;;;;;;;4.15;0.50;;;16.40;99.90;;;;;;5022039;28;20047;-72
2023/07/19 03:34:36;;;;;;;2.15;0.40;;;16.30;99.90;;;;;;5037587;28;20025;-72
2023/07/19 03:37:03;;;;;;;1.73;0.50;;;16.30;99.90;;;;;;4995019;28;20027;-72
2023/07/19 03:39:29;;;;;;;2.20;0.60;;;16.30;99.90;;;;;;5013190;28;20092;-72
2023/07/19 03:41:57;;;;;;;2.33;0.63;;;16.30;99.90;;;;;;4999182;28;20049;-72
2023/07/19 03:44:25;;;;;;;1.88;0.60;;;16.20;99.90;;;;;;4998484;28;20044;-72
2023/07/19 03:46:52;;;;;;;2.20;0.50;;;16.20;99.90;;;;;;4993835;28;20072;-72
2023/07/19 03:49:19;;;;;;;1.15;0.40;;;16.20;99.90;;;;;;5022361;28;20029;-72
2023/07/19 03:51:46;;;;;;;2.30;0.40;;;16.20;99.90;;;;;;5019207;28;20039;-72
2023/07/19 03:54:17;;;;;;;2.03;0.60;;;16.20;99.90;;;;;;5016167;28;20907;-72
2023/07/19 03:56:45;;;;;;;1.38;0.47;;;16.20;99.90;;;;;;5032350;28;20037;-73
2023/07/19 03:59:12;;;;;;;3.38;0.70;;;16.30;99.90;;;;;;4993595;28;20037;-73
2023/07/19 04:01:39;;;;;;;3.10;1.00;;;16.40;99.90;;;;;;4992152;28;20052;-72
2023/07/19 04:04:06;;;;;;;2.30;0.80;;;16.50;99.90;;;;;;5007565;28;20044;-71
2023/07/19 04:06:34;;;;;;;2.80;0.70;;;16.70;99.90;;;;;;5007919;28;20044;-72
2023/07/19 04:09:01;;;;;;;2.53;0.90;;;16.80;99.90;;;;;;5002754;28;20037;-73
2023/07/19 04:11:28;;;;;;;3.13;1.00;;;17.00;99.90;;;;;;5004880;28;20032;-73
2023/07/19 04:13:55;;;;;;;2.85;0.60;;;17.10;99.90;;;;;;4996556;28;20502;-73
2023/07/19 04:16:21;;;;;;;2.95;0.70;;;17.20;99.90;;;;;;5029509;28;20110;-73
2023/07/19 04:18:48;;;;;;;2.72;0.80;;;17.30;99.90;;;;;;4994924;28;20051;-71
2023/07/19 04:21:14;;;;;;;3.47;0.95;;;17.50;99.90;;;;;;4990624;28;20696;-72
2023/07/19 04:23:41;;;;;;;3.10;0.70;;;17.50;99.90;;;;;;4990900;28;20025;-72
2023/07/19 04:26:07;;;;;;;3.28;0.70;;;17.50;99.90;;;;;;5008097;28;20049;-72
2023/07/19 04:28:35;;;;;;;4.03;1.10;;;17.50;99.90;;;;;;5005589;28;20037;-72
2023/07/19 04:31:03;;;;;;;2.22;0.90;;;17.40;99.90;;;;;;5033795;28;20043;-72
2023/07/19 04:33:30;;;;;;;3.63;1.17;;;17.40;99.90;;;;;;5001512;28;20035;-72
2023/07/19 04:35:57;;;;;;;5.22;2.53;;;17.40;99.90;;;;;;4992616;28;20032;-72
2023/07/19 04:38:24;;;;;;;6.35;3.35;;;17.40;99.90;;;;;;4993091;28;20043;-72
2023/07/19 04:40:51;;;;;;;4.75;3.30;;;17.50;99.90;;;;;;4974860;28;20049;-72
2023/07/19 04:43:19;;;;;;;5.20;1.90;;;17.50;99.90;;;;;;4988637;28;20420;-72
2023/07/19 04:45:51;;;;;;;3.83;1.77;;;17.50;99.90;;;;;;5007451;28;20032;-71
2023/07/19 04:48:18;;;;;;;4.00;1.27;;;17.50;99.90;;;;;;5019333;28;20391;-72
2023/07/19 04:50:44;;;;;;;3.65;1.05;;;17.50;99.90;;;;;;5024091;28;20491;-71
2023/07/19 04:53:11;;;;;;;3.15;0.93;;;17.60;99.90;;;;;;5015005;28;20047;-71
2023/07/19 04:55:39;;;;;;;2.58;0.90;;;17.60;99.90;;;;;;5009437;28;20025;-71
2023/07/19 04:58:07;;;;;;;2.55;0.80;;;17.70;99.90;;;;;;5010823;28;20025;-71
2023/07/19 05:00:34;;;;;;;1.80;0.80;;;17.70;99.90;;;;;;5007829;28;20043;-71
2023/07/19 05:03:00;;;;;;;1.75;0.95;;;17.80;99.90;;;;;;5006353;28;20033;-72
2023/07/19 05:05:27;;;;;;;4.85;1.15;;;17.80;99.90;;;;;;5006157;28;20044;-71
2023/07/19 05:07:54;;;;;;;2.30;0.80;;;17.70;99.90;;;;;;5002925;28;20040;-72
2023/07/19 05:10:21;;;;;;;2.10;0.70;;;17.80;99.90;;;;;;5021405;28;20043;-72
2023/07/19 05:12:48;;;;;;;2.97;0.98;;;17.80;99.90;;;;;;5017153;28;20058;-72
2023/07/19 05:15:15;;;;;;;2.42;0.90;;;17.90;99.90;;;;;;5010759;28;20044;-73
2023/07/19 05:17:41;;;;;;;3.65;1.67;;;17.80;99.90;;;;;;5008643;28;20028;-72
2023/07/19 05:20:09;;;;;;;3.03;1.25;;;17.70;99.90;;;;;;4992349;28;20036;-72
2023/07/19 05:22:35;;;;;;;3.08;1.20;;;17.70;99.90;;;;;;4991611;28;20582;-72
2023/07/19 05:25:03;;;;;;;2.92;1.40;;;17.70;99.90;;;;;;5006199;28;20380;-73
2023/07/19 05:27:30;;;;;;;3.13;1.08;;;17.70;99.90;;;;;;5036569;28;20035;-72
2023/07/19 05:29:56;;;;;;;3.38;1.08;;;17.70;99.90;;;;;;5020415;28;20040;-73
2023/07/19 05:32:23;;;;;;;2.67;0.90;;;17.70;99.90;;;;;;5017335;28;20040;-73
2023/07/19 05:34:51;;;;;;;4.18;1.33;;;17.70;99.90;;;;;;5009791;28;21159;-72
2023/07/19 05:37:17;;;;;;;3.65;1.63;;;17.70;99.90;;;;;;5026418;28;20036;-72
2023/07/19 05:39:44;;;;;;;2.35;1.13;;;17.70;99.90;;;;;;5025482;28;20810;-72
2023/07/19 05:42:10;;;;;;;4.10;1.60;;;17.70;99.90;;;;;;5023443;28;20048;-72
2023/07/19 05:44:37;;;;;;;4.47;1.70;;;17.90;99.90;;;;;;4992381;28;20037;-72
2023/07/19 05:47:04;;;;;;;3.28;1.20;;;18.00;99.90;;;;;;5037553;28;20047;-72
2023/07/19 05:49:31;;;;;;;5.25;1.23;;;18.30;99.90;;;;;;5024052;28;20036;-72
2023/07/19 05:51:57;;;;;;;2.25;0.85;;;18.60;99.90;;;;;;5032820;28;20024;-72
2023/07/19 05:54:24;;;;;;;2.35;0.90;;;18.80;99.90;;;;;;5011204;28;20028;-72
2023/07/19 05:56:50;;;;;;;2.78;0.90;;;19.00;99.90;;;;;;5037360;28;20032;-72
2023/07/19 05:59:17;;;;;;;5.40;0.98;;;19.10;99.90;;;;;;5015001;28;21444;-72
2023/07/19 06:01:43;;;;;;;4.72;1.33;;;19.10;99.90;;;;;;5019976;28;20605;-72
2023/07/19 06:04:11;;;;;;;4.53;1.35;;;19.10;99.90;;;;;;5021535;28;20492;-72
2023/07/19 06:06:37;;;;;;;3.97;1.02;;;19.20;99.90;;;;;;5051282;28;20025;-72
2023/07/19 06:09:05;;;;;;;3.92;1.65;;;19.20;99.90;;;;;;5051797;28;20048;-72
2023/07/19 06:11:32;;;;;;;3.20;0.90;;;19.40;99.90;;;;;;5033717;28;20029;-72
2023/07/19 06:13:59;;;;;;;4.53;1.20;;;19.50;99.90;;;;;;5022533;28;20031;-72
2023/07/19 06:16:26;;;;;;;2.45;0.90;;;19.70;99.90;;;;;;5016267;28;20452;-72
2023/07/19 06:18:53;;;;;;;3.58;0.85;;;20.00;99.90;;;;;;5035719;28;20024;-71
2023/07/19 06:21:19;;;;;;;2.25;0.88;;;20.30;99.90;;;;;;5049536;28;20040;-72
2023/07/19 06:23:46;;;;;;;5.40;1.20;;;20.50;99.90;;;;;;5054091;28;20021;-72
2023/07/19 06:26:13;;;;;;;2.65;1.30;;;20.70;99.90;;;;;;5051599;28;20037;-72
2023/07/19 06:28:39;;;;;;;3.38;1.10;;;20.90;99.90;;;;;;5052230;28;20036;-72
2023/07/19 06:31:06;;;;;;;3.80;1.25;;;20.90;99.90;;;;;;5002337;28;20044;-72
2023/07/19 06:33:32;;;;;;;3.78;1.10;;;20.90;99.90;;;;;;5016545;28;20316;-72
2023/07/19 06:35:59;;;;;;;3.03;1.00;;;21.00;99.90;;;;;;5015671;28;20040;-72
2023/07/19 06:38:27;;;;;;;3.85;1.00;;;21.00;99.90;;;;;;5049254;28;20705;-72
2023/07/19 06:41:01;;;;;;;4.57;0.95;;;21.00;99.90;;;;;;5051802;28;20032;-72
2023/07/19 06:43:28;;;;;;;3.28;1.13;;;21.00;99.90;;;;;;5032278;28;20028;-72
2023/07/19 06:45:54;;;;;;;2.00;0.55;;;21.10;99.90;;;;;;5035304;28;20040;-72
2023/07/19 06:48:21;;;;;;;4.07;0.70;;;21.20;99.90;;;;;;5053767;28;20036;-72
2023/07/19 06:50:49;;;;;;;3.42;0.73;;;21.20;99.90;;;;;;5050537;28;20075;-72
2023/07/19 06:53:16;;;;;;;2.50;0.70;;;21.30;99.90;;;;;;5046500;28;20479;-72
2023/07/19 06:55:43;;;;;;;2.13;0.63;;;21.70;99.90;;;;;;5032389;28;20472;-72
2023/07/19 06:58:09;;;;;;;1.50;0.63;;;22.10;99.90;;;;;;5033226;28;20498;-72
2023/07/19 07:00:36;;;;;;;3.58;0.90;;;22.30;99.90;;;;;;5051410;28;20028;-72
2023/07/19 07:03:03;;;;;;;3.33;0.68;;;22.40;99.90;;;;;;5031704;28;20041;-72
2023/07/19 07:05:30;;;;;;;3.80;0.70;;;22.40;99.90;;;;;;5033837;28;20395;-72
2023/07/19 07:07:57;;;;;;;2.67;0.70;;;22.40;99.90;;;;;;5048663;28;20032;-72
2023/07/19 07:10:23;;;;;;;2.75;0.60;;;22.40;99.90;;;;;;5036677;28;20031;-72
2023/07/19 07:12:50;;;;;;;3.30;0.70;;;22.40;99.90;;;;;;5003830;28;20487;-72
2023/07/19 07:15:17;;;;;;;1.60;0.45;;;22.40;99.90;;;;;;5054597;28;20040;-72
2023/07/19 07:17:45;;;;;;;1.67;0.50;;;22.30;99.90;;;;;;5036933;28;20032;-72
2023/07/19 07:20:11;;;;;;;2.53;0.90;;;22.30;99.90;;;;;;5036836;28;20052;-72
2023/07/19 07:22:38;;;;;;;3.92;0.60;;;22.30;99.90;;;;;;5041064;28;20496;-73
2023/07/19 07:25:04;;;;;;;2.35;0.50;;;22.20;99.90;;;;;;5054076;28;20048;-72
2023/07/19 07:27:31;;;;;;;1.77;0.60;;;22.10;99.90;;;;;;5020750;28;20029;-72
2023/07/19 07:29:58;;;;;;;1.77;0.50;;;22.00;99.90;;;;;;5055504;28;20038;-72
2023/07/19 07:32:25;;;;;;;2.22;0.60;;;22.00;99.90;;;;;;5035295;28;20036;-72
2023/07/19 07:34:51;;;;;;;1.42;0.40;;;22.00;99.90;;;;;;5053377;28;20048;-72
2023/07/19 07:37:17;;;;;;;2.20;0.50;;;21.90;99.90;;;;;;5054022;28;20602;-72
2023/07/19 07:39:44;;;;;;;2.60;0.65;;;21.90;99.90;;;;;;5039082;28;20025;-72
2023/07/19 07:42:11;;;;;;;3.78;0.60;;;22.00;99.90;;;;;;5053453;28;20053;-72
2023/07/19 07:44:37;;;;;;;2.90;0.80;;;22.00;99.90;;;;;;5053689;28;20036;-72
2023/07/19 07:47:04;;;;;;;1.98;0.68;;;22.20;99.90;;;;;;5038503;28;20476;-72
2023/07/19 07:49:31;;;;;;;2.40;1.08;;;22.40;99.90;;;;;;5036168;28;20043;-72
2023/07/19 07:51:58;;;;;;;3.03;0.60;;;22.70;99.90;;;;;;5054371;28;20059;-72
2023/07/19 07:54:24;;;;;;;3.67;1.05;;;22.70;99.90;;;;;;5006927;28;20039;-74
2023/07/19 07:56:51;;;;;;;2.72;0.90;;;22.70;99.90;;;;;;5034402;28;20069;-75
2023/07/19 07:59:17;;;;;;;3.25;1.23;;;22.80;99.90;;;;;;5056192;28;20036;-73
2023/07/19 08:01:44;;;;;;;2.35;0.75;;;22.90;99.90;;;;;;5035844;28;20379;-73
2023/07/19 08:04:12;;;;;;;2.60;0.90;;;23.10;99.90;;;;;;5035895;28;20043;-74
2023/07/19 08:06:39;;;;;;;5.75;1.92;;;23.30;99.90;;;;;;5056666;28;20024;-73
2023/07/19 08:09:05;;;;;;;5.05;1.88;;;23.60;99.90;;;;;;5052056;28;20043;-72
2023/07/19 08:11:32;;;;;;;4.00;1.20;;;23.70;99.90;;;;;;5053584;28;20021;-74
2023/07/19 08:13:58;;;;;;;4.20;1.42;;;23.80;99.90;;;;;;5017839;28;20036;-74
2023/07/19 08:16:27;;;;;;;7.15;1.50;;;24.00;99.90;;;;;;5022850;28;20024;-72
2023/07/19 08:18:53;;;;;;;3.20;1.00;;;24.10;99.90;;;;;;5057119;28;20044;-74
2023/07/19 08:21:20;;;;;;;3.88;1.13;;;24.30;99.90;;;;;;5037647;28;20029;-74
2023/07/19 08:23:51;;;;;;;3.58;1.20;;;24.40;99.90;;;;;;5051600;28;20032;-72
2023/07/19 08:26:17;;;;;;;3.50;1.50;;;24.50;99.90;;;;;;5055782;28;20020;-74
2023/07/19 08:28:44;;;;;;;6.38;1.00;;;24.60;99.90;;;;;;5037710;28;20431;-73
2023/07/19 08:31:11;;;;;;;4.95;1.10;;;24.70;99.90;;;;;;5051574;28;20036;-73
2023/07/19 08:33:37;;;;;;;3.03;0.70;;;24.70;99.90;;;;;;5054617;28;20025;-75
2023/07/19 08:36:04;;;;;;;4.53;1.17;;;24.80;99.90;;;;;;5024207;28;20020;-73
2023/07/19 08:38:31;;;;;;;2.45;0.70;;;25.10;99.90;;;;;;5018860;28;20032;-74
2023/07/19 08:41:02;;;;;;;5.13;0.88;;;25.30;99.90;;;;;;5036152;28;20479;-71
2023/07/19 08:43:32;;;;;;;4.43;1.00;;;25.60;99.80;;;;;;5016929;28;20045;-72
2023/07/19 08:45:59;;;;;;;3.33;0.80;;;25.80;99.30;;;;;;5034233;28;20043;-71
2023/07/19 08:48:26;;;;;;;3.05;1.00;;;25.90;99.00;;;;;;5034417;28;20029;-72
2023/07/19 08:50:59;;;;;;;2.67;0.93;;;26.10;98.50;;;;;;5002362;28;20419;-72
2023/07/19 08:53:26;;;;;;;3.97;0.98;;;26.20;97.60;;;;;;5054180;28;20016;-72
2023/07/19 08:55:54;;;;;;;4.50;1.15;;;26.40;97.40;;;;;;5033930;28;20037;-72
2023/07/19 08:58:21;;;;;;;3.72;1.02;;;26.40;96.70;;;;;;5033250;28;20610;-72
2023/07/19 09:00:49;;;;;;;2.78;0.93;;;26.30;96.70;;;;;;5036570;28;20052;-72
2023/07/19 09:03:19;;;;;;;3.50;1.00;;;26.30;96.30;;;;;;5055159;28;20382;-72
2023/07/19 09:05:46;;;;;;;4.07;0.98;;;26.00;96.40;;;;;;5053434;28;20032;-72
2023/07/19 09:08:13;;;;;;;3.85;0.85;;;25.80;96.60;;;;;;5053921;28;20028;-72
2023/07/19 09:10:44;;;;;;;2.10;0.90;;;25.70;97.00;;;;;;5033496;28;20041;-74
2023/07/19 09:13:10;;;;;;;2.88;0.88;;;25.70;96.70;;;;;;5034830;28;20047;-73
2023/07/19 09:15:38;;;;;;;1.80;0.70;;;25.60;96.50;;;;;;5018536;28;20029;-74
2023/07/19 09:18:05;;;;;;;5.35;1.00;;;25.40;96.60;;;;;;5053391;28;20477;-73
2023/07/19 09:20:38;;;;;;;3.65;1.00;;;25.30;97.10;;;;;;5054094;28;20040;-72
2023/07/19 09:23:06;;;;;;;3.50;1.02;;;25.30;97.80;;;;;;5054559;28;20395;-73
2023/07/19 09:25:34;;;;;;;2.65;1.00;;;25.40;98.30;;;;;;5019643;28;20036;-74
2023/07/19 09:28:08;;;;;;;3.88;0.98;;;25.60;98.20;;;;;;5049595;28;20388;-73
2023/07/19 09:30:35;;;;;;;3.15;1.00;;;25.90;97.60;;;;;;5018444;28;20033;-74
2023/07/19 09:33:01;;;;;;;4.05;1.58;;;26.20;97.10;;;;;;5020418;28;20043;-73
2023/07/19 09:35:29;;;;;;;3.65;1.10;;;26.70;96.40;;;;;;5051089;28;20352;-73
2023/07/19 09:37:56;;;;;;;4.28;0.60;;;26.90;95.10;;;;;;5034088;28;20025;-73
2023/07/19 09:40:22;;;;;;;2.90;0.70;;;26.70;94.60;;;;;;5036209;28;20507;-73
2023/07/19 09:42:49;;;;;;;2.90;0.85;;;26.30;94.10;;;;;;5017796;28;20047;-73
2023/07/19 09:45:17;;;;;;;2.40;0.70;;;25.80;93.70;;;;;;5023546;28;20032;-73
2023/07/19 09:47:45;;;;;;;1.90;0.82;;;25.40;94.10;;;;;;5034448;28;20024;-72
2023/07/19 09:50:12;;;;;;;1.92;0.70;;;25.10;94.60;;;;;;5021968;28;20059;-74
2023/07/19 09:52:39;;;;;;;2.75;0.60;;;24.90;94.70;;;;;;5019615;28;20036;-73
2023/07/19 09:55:07;;;;;;;1.40;0.55;;;24.90;94.80;;;;;;5053960;28;20029;-73
2023/07/19 09:57:38;;;;;;;2.58;0.77;;;25.10;94.80;;;;;;5031836;28;20025;-73
2023/07/19 10:00:05;;;;;;;1.40;0.52;;;25.50;94.60;;;;;;5035922;28;20049;-73
2023/07/19 10:02:35;;;;;;;2.25;0.70;;;25.90;94.40;;;;;;5050599;28;21045;-72
2023/07/19 10:05:08;;;;;;;2.55;0.70;;;26.10;93.50;;;;;;5034070;28;20033;-72
2023/07/19 10:07:36;;;;;;;2.33;0.60;;;26.30;93.20;;;;;;5035991;28;20423;-72
2023/07/19 10:10:05;;;;;;;3.20;0.93;;;26.30;93.00;;;;;;5037854;28;20036;-72
2023/07/19 10:12:36;;;;;;;2.45;1.08;;;26.60;92.60;;;;;;5019356;28;20043;-72
2023/07/19 10:15:06;;;;;;;2.55;0.68;;;26.80;91.80;;;;;;5017371;28;20041;-72
2023/07/19 10:17:54;;;;;;;2.22;0.70;;;26.90;92.00;;;;;;5051777;28;20032;-72
2023/07/19 10:20:24;;;;;;;2.28;0.70;;;26.90;91.90;;;;;;5015089;28;20051;-71
2023/07/19 10:23:04;;;;;;;3.55;0.90;;;26.90;92.10;;;;;;5033622;28;20032;-72
2023/07/19 10:25:48;;;;;;;2.42;0.60;;;26.80;92.00;;;;;;5051859;28;20586;-72
2023/07/19 10:28:26;;;;;;;2.67;0.85;;;26.60;92.10;;;;;;5036465;28;20028;-72
2023/07/19 10:30:57;;;;;;;2.17;0.80;;;26.50;92.30;;;;;;5052705;28;20043;-72
2023/07/19 10:33:31;;;;;;;3.15;0.68;;;26.40;92.20;;;;;;5034559;28;20119;-72
2023/07/19 10:36:05;;;;;;;3.72;0.80;;;26.30;92.20;;;;;;5054163;28;20039;-73
2023/07/19 10:38:32;;;;;;;8.23;2.08;;;25.90;93.50;;;;;;5021330;28;20031;-72
2023/07/19 10:41:02;;;;;;;4.63;1.45;;;25.00;97.20;;;;;;5033486;28;20049;-72
2023/07/19 10:43:31;;;;;;;3.05;1.38;;;24.00;99.80;;;;;;5032778;28;20048;-71
2023/07/19 10:46:00;;;;;;;3.22;1.17;;;23.40;99.90;;;;;;5054502;28;20035;-72
2023/07/19 10:48:27;;;;;;;5.53;2.15;;;23.10;99.90;;;;;;5057196;28;20067;-71
2023/07/19 10:51:17;;;;;;;3.95;1.20;;;22.90;99.90;;;;;;5035355;28;20032;-71
2023/07/19 10:53:46;;;;;;;2.15;0.85;;;22.90;99.90;;;;;;5059213;28;20040;-72
2023/07/19 10:56:15;;;;;;;2.58;1.20;;;23.10;99.90;;;;;;5038935;28;20047;-71
2023/07/19 10:58:45;;;;;;;2.55;1.10;;;23.30;99.90;;;;;;5038977;28;20039;-72
2023/07/19 11:01:12;;;;;;;5.03;1.75;;;23.70;99.90;;;;;;5055814;28;20047;-71
2023/07/19 11:03:40;;;;;;;2.65;1.10;;;24.00;99.90;;;;;;5052886;28;20029;-71
2023/07/19 11:06:08;;;;;;;3.88;1.42;;;24.30;99.90;;;;;;5037660;28;20037;-72
2023/07/19 11:08:34;;;;;;;3.17;1.10;;;24.60;99.90;;;;;;5022490;28;20511;-70
2023/07/19 11:11:01;;;;;;;3.90;0.98;;;24.90;99.90;;;;;;5056317;28;20044;-71
2023/07/19 11:13:27;;;;;;;6.25;1.38;;;25.30;99.90;;;;;;5058728;28;20063;-72
2023/07/19 11:15:55;;;;;;;3.75;0.90;;;25.60;99.90;;;;;;5021545;28;20040;-72
2023/07/19 11:18:29;;;;;;;2.90;1.25;;;26.00;99.90;;;;;;5039286;28;20056;-71
2023/07/19 11:20:57;;;;;;;3.08;1.35;;;26.20;99.90;;;;;;5039959;28;20041;-72
2023/07/19 11:23:25;;;;;;;4.28;1.27;;;26.60;99.90;;;;;;5052280;28;20033;-71
2023/07/19 11:26:03;;;;;;;3.15;0.70;;;26.90;99.90;;;;;;5052720;28;20082;-72
2023/07/19 11:28:59;;;;;;;4.15;0.90;;;27.20;99.90;;;;;;5020998;28;20504;-72
2023/07/19 11:31:38;;;;;;;4.53;1.08;;;27.60;99.90;;;;;;5037809;28;20036;-73
2023/07/19 11:34:16;;;;;;;3.42;0.90;;;27.90;99.90;;;;;;5056124;28;20028;-72
2023/07/19 11:36:46;;;;;;;2.55;0.90;;;28.40;99.90;;;;;;5016293;28;20071;-72
2023/07/19 11:39:14;;;;;;;2.40;0.95;;;28.90;99.90;;;;;;5053698;28;20028;-72
2023/07/19 11:41:45;;;;;;;2.60;0.77;;;29.00;98.80;;;;;;5037322;28;20037;-73
2023/07/19 11:44:21;;;;;;;2.53;0.70;;;28.60;97.80;;;;;;5057827;28;20499;-73
2023/07/19 11:46:48;;;;;;;2.25;0.70;;;27.80;97.80;;;;;;5036587;28;20020;-73
2023/07/19 11:49:16;;;;;;;3.78;1.25;;;27.10;97.80;;;;;;5054423;28;20487;-73
2023/07/19 11:51:45;;;;;;;2.15;0.80;;;26.50;98.40;;;;;;5033565;28;20475;-73
2023/07/19 11:54:12;;;;;;;4.45;1.25;;;26.10;99.00;;;;;;5039848;28;20044;-74
2023/07/19 11:56:39;;;;;;;8.20;1.63;;;25.80;99.70;;;;;;5057365;28;20052;-72
2023/07/19 11:59:05;;;;;;;5.70;1.80;;;25.70;99.70;;;;;;5035006;28;20044;-73
2023/07/19 12:01:32;;;;;;;5.15;1.50;;;25.90;99.60;;;;;;5007277;28;1257400;-73
2023/07/19 12:03:59;;;;;;;3.33;1.15;;;26.30;99.60;;;;;;5036339;28;20040;-74
2023/07/19 12:06:26;;;;;;;4.03;1.02;;;26.60;98.90;;;;;;5038748;28;20039;-73
2023/07/19 12:08:52;;;;;;;5.80;1.45;;;26.70;98.70;;;;;;5039305;28;20135;-73
2023/07/19 12:11:19;;;;;;;3.42;0.90;;;26.50;98.30;;;;;;5052369;28;20484;-74
2023/07/19 12:13:45;;;;;;;3.95;1.17;;;26.10;98.60;;;;;;5039863;28;20502;-72
2023/07/19 12:16:11;;;;;;;6.55;1.63;;;25.70;99.10;;;;;;5055886;28;20359;-71
2023/07/19 12:18:39;;;;;;;4.75;1.42;;;25.20;99.90;;;;;;5058989;28;20396;-70
2023/07/19 12:21:06;;;;;;;3.67;1.10;;;24.50;99.90;;;;;;5038921;28;20032;-69
2023/07/19 12:23:32;;;;;;;2.75;1.13;;;23.50;99.90;;;;;;5050181;28;20036;-70
2023/07/19 12:25:59;;;;;;;3.47;0.80;;;22.80;99.90;;;;;;5034944;28;20036;-70
2023/07/19 12:28:26;;;;;;;6.43;1.40;;;22.30;99.90;;;;;;5039111;28;20039;-70
2023/07/19 12:30:52;;;;;;;3.25;1.13;;;21.90;99.90;;;;;;5054906;28;20040;-70
2023/07/19 12:33:19;;;;;;;3.88;1.02;;;21.60;99.90;;;;;;5056264;28;20029;-71
2023/07/19 12:35:47;;;;;;;4.00;1.35;;;21.40;99.90;;;;;;5055242;28;20116;-70
2023/07/19 12:38:15;;;;;;;3.15;1.20;;;21.40;99.90;;;;;;5058098;28;20028;-70
2023/07/19 12:40:42;;;;;;;4.07;1.73;;;21.40;99.90;;;;;;5037406;28;20052;-70
2023/07/19 12:43:08;;;;;;;2.55;1.02;;;21.50;99.90;;;;;;5048682;28;20036;-69
2023/07/19 12:45:37;;;;;;;3.35;1.70;;;21.80;99.90;;;;;;5053645;28;20032;-70
2023/07/19 12:48:04;;;;;;;3.90;1.17;;;22.30;99.90;;;;;;5023442;28;20962;-70
2023/07/19 12:50:31;;;;;;;4.15;1.58;;;23.30;99.90;;;;;;5038285;28;20029;-70